Newport, RI (02840)

6:07 AM EDT on September 18, 2014 (GMT -0400)
Sherman St. | Change Station
CLOSE
Current Station
Personal Weather Station
Location: Newport, RI
Elevation: 200 ft
Nearby Weather Stations

Elev 200 ft 41.49 °N, 71.31 °W | Updated 7 minutes ago

Clear
Clear
58.2 °F
Feels Like 58.2 °F
N
-
Wind Variable Wind from North

Today
High -- | Low -- °F
--% Chance of Precip.
Yesterday
High -- | Low -- °F
Precip. -- in
6:28 AM 6:49 PM
Waning Crescent, 28% visible
Pressure 29.96 in
Visibility 10.0 miles
Clouds Clear
Dew Point 52 °F
Humidity 79%
Rainfall -999.00 in
Snow Depth Not available.
UV 0 out of 12
Pollen 3.50 out of 12
Ozone Good
PM2.5 Good
Flu Activity Not available.
METAR KUUU 180953Z AUTO 00000KT 10SM CLR 11/09 A2996 RMK AO2 SLP143 T01110089

More Conditions Fewer Conditions

Pressure 29.96 in
Visibility 10.0 miles
Clouds Clear
Dew Point 52 °F
Humidity 79%
Rainfall -999.00 in
Snow Depth Not available.
UV 0 out of 12
Pollen 3.50 out of 12
Ozone Good
PM2.5 Good
Flu Activity Not available.
METAR KUUU 180953Z AUTO 00000KT 10SM CLR 11/09 A2996 RMK AO2 SLP143 T01110089

More Conditions Fewer Conditions

10-Day Weather Forecast

Almanac

Astronomy

Sep. 18, 2014 Rise Set
Actual Time 6:28 AM EDT 6:49 PM EDT
Civil Twilight 6:00 AM EDT 7:17 PM EDT
Nautical Twilight 5:28 AM EDT 7:49 PM EDT
Astronomical Twilight 4:54 AM EDT 8:22 PM EDT
Moon 1:15 AM EDT 3:41 PM EDT
Length of Visible Light 13h 16m
Length of Day
12h 20m
Tomorrow will be 2m 45s shorter.
Waning Crescent, 28% of the Moon is Illuminated
Today
Waning Crescent
Sep 24
New
Oct 1
First Quarter
Oct 8
Full
Oct 15
Last Quarter

Today's Extremes

State Highs State Lows

Community

WunderPhotos

Upload Photos

1,754,313 photos uploaded!

Nearby

Air Quality

  Air Quality AQ Index Pollutant
Yesterday Good
OZONE
Yesterday Good
PM2.5
Current Good
OZONE
Current Good
PM2.5
Thursday Good
OZONE
Thursday Good
PM2.5
Friday Good
OZONE
Friday Good
PM2.5
Saturday Good
OZONE
Saturday Good
PM2.5
Sunday Good
OZONE
Sunday Good
PM2.5

Snow Depth

Station Depth Elevation
No new snow has been reported.

Earthquake Activity

City Distance Mag. Time & Date
No recent earthquake activity has been reported nearby.
Minimum magnitude displayed is 2.5.

Coastal Water Temperatures

Place Temperature
Newport, RI 68.0 °F
Quonset Point, RI 69.1 °F
Conimicut Light, RI 69.1 °F

Nearby Weather Stations